createdAt,value
2022-10-17T00:02:18.411Z,13.90
2022-10-17T00:04:45.243Z,12.77
2022-10-17T00:07:12.050Z,12.77
2022-10-17T00:09:41.833Z,13.47
2022-10-17T00:12:08.713Z,13.97
2022-10-17T00:14:35.757Z,12.80
2022-10-17T00:17:02.800Z,13.97
2022-10-17T00:19:29.563Z,13.47
2022-10-17T00:21:56.479Z,14.47
2022-10-17T00:24:23.304Z,12.43
2022-10-17T00:26:50.094Z,13.63
2022-10-17T00:29:16.923Z,14.10
2022-10-17T00:31:43.819Z,13.17
2022-10-17T00:34:10.632Z,13.73
2022-10-17T00:36:37.679Z,13.97
2022-10-17T00:39:04.562Z,13.03
2022-10-17T00:41:33.378Z,13.57
2022-10-17T00:44:01.799Z,13.47
2022-10-17T00:46:35.368Z,13.70
2022-10-17T00:49:07.335Z,14.40
2022-10-17T00:51:40.944Z,14.43
2022-10-17T00:54:09.646Z,14.17
2022-10-17T00:56:36.946Z,12.97
2022-10-17T00:59:04.003Z,13.03
2022-10-17T01:01:31.080Z,13.63
2022-10-17T01:03:57.910Z,13.80
2022-10-17T01:06:24.731Z,12.73
2022-10-17T01:08:51.690Z,12.50
2022-10-17T01:11:39.938Z,12.93
2022-10-17T01:14:10.326Z,13.00
2022-10-17T01:16:42.990Z,12.20
2022-10-17T01:19:34.844Z,13.77
2022-10-17T01:22:39.971Z,13.73
2022-10-17T01:25:18.663Z,14.20
2022-10-17T01:27:51.696Z,14.10
2022-10-17T01:30:56.737Z,13.50
2022-10-17T01:33:35.816Z,14.03
2022-10-17T01:36:25.235Z,13.60
2022-10-17T01:39:11.470Z,13.40
2022-10-17T01:41:47.012Z,13.50
2022-10-17T01:44:13.788Z,14.53
2022-10-17T01:46:43.708Z,12.80
2022-10-17T01:49:12.809Z,13.20
2022-10-17T01:51:48.140Z,14.03
2022-10-17T01:54:25.875Z,13.37
2022-10-17T01:56:58.743Z,15.07
2022-10-17T01:59:47.687Z,14.03
2022-10-17T02:02:17.698Z,12.07
2022-10-17T02:04:47.194Z,13.90
2022-10-17T02:07:14.018Z,12.97
2022-10-17T02:09:41.099Z,14.90
2022-10-17T02:12:22.867Z,15.00
2022-10-17T02:15:13.891Z,14.63
2022-10-17T02:17:59.458Z,12.93
2022-10-17T02:20:37.589Z,13.13
2022-10-17T02:23:39.815Z,13.83
2022-10-17T02:26:24.866Z,14.40
2022-10-17T02:29:07.215Z,13.73
2022-10-17T02:31:43.369Z,13.40
2022-10-17T02:34:29.221Z,14.20
2022-10-17T02:37:00.989Z,14.83
2022-10-17T02:39:29.258Z,13.60
2022-10-17T02:41:58.973Z,13.13
2022-10-17T02:44:28.401Z,13.00
2022-10-17T02:47:11.409Z,14.23
2022-10-17T02:49:44.853Z,17.10
2022-10-17T02:52:22.385Z,12.77
2022-10-17T02:54:58.905Z,14.00
2022-10-17T02:57:31.746Z,12.70
2022-10-17T03:00:00.950Z,13.80
2022-10-17T03:02:28.656Z,14.40
2022-10-17T03:04:56.438Z,13.30
2022-10-17T03:07:23.316Z,13.80
2022-10-17T03:09:50.061Z,13.33
2022-10-17T03:12:16.840Z,13.83
2022-10-17T03:14:43.704Z,13.47
2022-10-17T03:17:10.521Z,14.60
2022-10-17T03:19:37.291Z,13.73
2022-10-17T03:22:04.133Z,13.60
2022-10-17T03:24:30.913Z,13.83
2022-10-17T03:26:57.674Z,12.80
2022-10-17T03:29:24.570Z,13.33
2022-10-17T03:31:51.348Z,13.97
2022-10-17T03:34:18.903Z,13.57
2022-10-17T03:36:46.285Z,13.07
2022-10-17T03:39:13.352Z,13.57
2022-10-17T03:41:40.143Z,13.27
2022-10-17T03:44:07.027Z,12.90
2022-10-17T03:46:33.879Z,13.13
2022-10-17T03:49:00.623Z,14.63
2022-10-17T03:51:27.490Z,15.03
2022-10-17T03:53:54.424Z,13.07
2022-10-17T03:56:23.597Z,13.33
2022-10-17T03:58:50.582Z,14.70
2022-10-17T04:01:18.777Z,15.23
2022-10-17T04:03:50.577Z,15.43
2022-10-17T04:06:17.796Z,14.00
2022-10-17T04:08:44.824Z,13.90
2022-10-17T04:11:15.350Z,16.47
2022-10-17T04:13:42.265Z,15.60
2022-10-17T04:16:13.406Z,15.70
2022-10-17T04:18:40.445Z,15.37
2022-10-17T04:21:08.198Z,14.30
2022-10-17T04:23:35.725Z,16.27
2022-10-17T04:26:03.628Z,15.93
2022-10-17T04:28:31.281Z,14.30
2022-10-17T04:30:59.501Z,14.40
2022-10-17T04:33:26.309Z,15.20
2022-10-17T04:36:00.841Z,14.70
2022-10-17T04:38:29.012Z,15.00
2022-10-17T04:41:03.326Z,14.70
2022-10-17T04:43:37.935Z,14.67
2022-10-17T04:46:07.747Z,16.50
2022-10-17T04:48:35.078Z,15.00
2022-10-17T04:51:25.945Z,16.00
2022-10-17T04:53:53.502Z,15.77
2022-10-17T04:56:22.822Z,14.73
2022-10-17T04:58:50.602Z,14.37
2022-10-17T05:01:19.846Z,16.00
2022-10-17T05:03:47.206Z,15.90
2022-10-17T05:06:16.586Z,16.60
2022-10-17T05:08:44.437Z,17.30
2022-10-17T05:11:18.145Z,15.77
2022-10-17T05:13:45.495Z,16.80
2022-10-17T05:16:12.364Z,16.20
2022-10-17T05:18:39.189Z,17.00
2022-10-17T05:21:06.129Z,17.73
2022-10-17T05:23:33.019Z,17.97
2022-10-17T05:25:59.878Z,16.63
2022-10-17T05:28:27.549Z,16.13
2022-10-17T05:30:54.413Z,18.30
2022-10-17T05:33:22.958Z,17.37
2022-10-17T05:35:49.838Z,17.43
2022-10-17T05:38:16.638Z,16.50
2022-10-17T05:40:43.431Z,17.77
2022-10-17T05:43:10.261Z,17.10
2022-10-17T05:45:37.278Z,17.07
2022-10-17T05:48:04.228Z,17.03
2022-10-17T05:50:30.993Z,18.30
2022-10-17T05:52:57.868Z,16.70
2022-10-17T05:55:24.697Z,17.23
2022-10-17T05:57:52.783Z,17.37
2022-10-17T06:00:20.641Z,17.70
2022-10-17T06:02:48.598Z,18.03
2022-10-17T06:05:15.773Z,17.23
2022-10-17T06:07:43.259Z,16.57
2022-10-17T06:10:12.920Z,18.87
2022-10-17T06:12:39.977Z,17.57
2022-10-17T06:15:07.277Z,18.43
2022-10-17T06:17:34.130Z,16.93
2022-10-17T06:20:00.932Z,15.63
2022-10-17T06:22:28.038Z,17.23
2022-10-17T06:24:55.051Z,18.00
2022-10-17T06:27:21.881Z,16.93
2022-10-17T06:29:48.951Z,16.60
2022-10-17T06:32:15.703Z,18.00
2022-10-17T06:34:42.529Z,20.67
2022-10-17T06:37:09.249Z,18.60
2022-10-17T06:39:36.483Z,17.80
2022-10-17T06:42:04.278Z,16.70
2022-10-17T06:44:31.939Z,16.93
2022-10-17T06:47:02.038Z,16.97
2022-10-17T06:49:28.846Z,17.57
2022-10-17T06:51:55.998Z,17.23
2022-10-17T06:54:22.783Z,16.10
2022-10-17T06:56:49.734Z,15.60
2022-10-17T06:59:16.672Z,15.30
2022-10-17T07:01:46.240Z,14.93
2022-10-17T07:04:14.530Z,16.47
2022-10-17T07:06:41.383Z,17.00
2022-10-17T07:09:08.243Z,17.77
2022-10-17T07:11:37.811Z,15.97
2022-10-17T07:14:04.667Z,17.27
2022-10-17T07:16:31.730Z,18.20
2022-10-17T07:18:58.508Z,16.87
2022-10-17T07:21:25.543Z,16.83
2022-10-17T07:23:52.299Z,16.67
2022-10-17T07:26:20.288Z,16.60
2022-10-17T07:28:48.271Z,16.80
2022-10-17T07:31:17.723Z,18.47
2022-10-17T07:36:13.046Z,17.10
2022-10-17T07:38:40.139Z,15.77
2022-10-17T07:41:09.147Z,17.53
2022-10-17T07:43:36.925Z,17.47
2022-10-17T07:46:05.815Z,16.17
2022-10-17T07:48:32.913Z,15.60
2022-10-17T07:51:02.916Z,13.60
2022-10-17T07:53:29.704Z,14.13
2022-10-17T07:55:56.476Z,14.70
2022-10-17T07:58:23.422Z,15.03
2022-10-17T08:00:51.204Z,16.50
2022-10-17T08:03:18.063Z,15.43
2022-10-17T08:05:45.077Z,17.13
2022-10-17T08:08:11.886Z,16.20
2022-10-17T08:10:38.648Z,16.33
2022-10-17T08:13:05.489Z,14.07
2022-10-17T08:15:32.339Z,15.97
2022-10-17T08:17:59.647Z,14.90
2022-10-17T08:20:26.898Z,13.87
2022-10-17T08:22:56.739Z,15.30
2022-10-17T08:25:23.907Z,15.17
2022-10-17T08:27:50.729Z,14.80
2022-10-17T08:30:17.917Z,16.03
2022-10-17T08:32:44.981Z,14.63
2022-10-17T08:35:11.877Z,13.13
2022-10-17T08:37:38.655Z,16.90
2022-10-17T08:40:06.025Z,14.23
2022-10-17T08:42:41.763Z,15.17
2022-10-17T08:45:29.903Z,14.60
2022-10-17T08:48:11.026Z,14.30
2022-10-17T08:50:42.682Z,14.90
2022-10-17T08:53:19.887Z,14.83
2022-10-17T08:55:49.350Z,13.13
2022-10-17T08:58:19.456Z,14.47
2022-10-17T09:01:02.119Z,14.23
2022-10-17T09:03:37.846Z,13.63
2022-10-17T09:06:29.883Z,13.20
2022-10-17T09:09:05.971Z,13.53
2022-10-17T09:11:41.955Z,12.67
2022-10-17T09:14:08.796Z,12.10
2022-10-17T09:16:56.305Z,13.70
2022-10-17T09:19:32.186Z,13.20
2022-10-17T09:22:04.408Z,12.97
2022-10-17T09:24:50.511Z,12.63
2022-10-17T09:27:32.624Z,12.70
2022-10-17T09:30:51.558Z,14.30
2022-10-17T09:33:53.300Z,12.30
2022-10-17T09:36:30.418Z,12.70
2022-10-17T09:39:01.788Z,11.80
2022-10-17T09:41:48.944Z,12.83
2022-10-17T09:44:22.567Z,11.67
2022-10-17T09:47:14.320Z,12.33
2022-10-17T09:49:43.631Z,12.63
2022-10-17T09:52:47.853Z,12.60
2022-10-17T09:55:31.136Z,11.23
2022-10-17T09:58:03.772Z,11.23
2022-10-17T10:00:50.120Z,12.03
2022-10-17T10:03:20.979Z,12.27
2022-10-17T10:06:05.305Z,11.30
2022-10-17T10:08:37.868Z,11.73
2022-10-17T10:11:11.810Z,11.87
2022-10-17T10:13:40.667Z,12.27
2022-10-17T10:16:30.070Z,10.80
2022-10-17T10:18:57.431Z,11.60
2022-10-17T10:21:26.974Z,10.93
2022-10-17T10:23:59.711Z,12.10
2022-10-17T10:26:30.871Z,12.53
2022-10-17T10:29:02.181Z,12.17
2022-10-17T10:31:35.761Z,11.87
2022-10-17T10:34:21.496Z,11.43
2022-10-17T10:36:53.497Z,11.30
2022-10-17T10:39:29.866Z,11.80
2022-10-17T10:41:56.889Z,10.53
2022-10-17T10:44:27.196Z,10.67
2022-10-17T10:47:08.666Z,11.80
2022-10-17T10:49:35.864Z,11.40
2022-10-17T10:52:04.511Z,10.50
2022-10-17T10:54:46.644Z,11.00
2022-10-17T10:57:21.416Z,12.37
2022-10-17T10:59:56.040Z,12.10
2022-10-17T11:02:47.820Z,11.10
2022-10-17T11:05:23.699Z,10.73
2022-10-17T11:07:58.347Z,10.60
2022-10-17T11:10:44.604Z,11.53
2022-10-17T11:13:11.419Z,11.40
2022-10-17T11:15:51.780Z,11.80
2022-10-17T11:18:28.843Z,11.30
2022-10-17T11:21:15.199Z,12.10
2022-10-17T11:23:52.030Z,13.03
2022-10-17T11:26:27.348Z,10.00
2022-10-17T11:28:56.086Z,11.20
2022-10-17T11:31:35.000Z,10.27
2022-10-17T11:34:12.007Z,11.60
2022-10-17T11:36:44.071Z,11.50
2022-10-17T11:39:10.862Z,12.13
2022-10-17T11:41:46.752Z,11.43
2022-10-17T11:44:38.752Z,11.33
2022-10-17T11:47:11.840Z,11.40
2022-10-17T11:49:47.290Z,10.07
2022-10-17T11:53:02.909Z,10.90
2022-10-17T11:55:31.668Z,10.77
2022-10-17T11:58:24.495Z,12.50
2022-10-17T12:01:00.648Z,11.20
2022-10-17T12:03:37.560Z,10.93
2022-10-17T12:06:16.339Z,10.67
2022-10-17T12:08:55.347Z,9.53
2022-10-17T12:11:42.168Z,9.80
2022-10-17T12:14:33.611Z,9.77
2022-10-17T12:17:01.646Z,10.60
2022-10-17T12:19:32.659Z,11.30
2022-10-17T12:22:04.978Z,11.50
2022-10-17T12:24:42.294Z,10.90
2022-10-17T12:27:34.661Z,11.13
2022-10-17T12:30:12.162Z,9.33
2022-10-17T12:33:05.780Z,10.67
2022-10-17T12:35:36.139Z,10.87
2022-10-17T12:38:19.477Z,10.33
2022-10-17T12:40:50.781Z,11.27
2022-10-17T12:43:17.540Z,10.17
2022-10-17T12:45:54.442Z,9.60
2022-10-17T12:48:39.584Z,10.80
2022-10-17T12:54:00.089Z,10.00
2022-10-17T12:56:40.621Z,11.03
2022-10-17T12:59:25.198Z,11.20
2022-10-17T13:01:55.685Z,11.03
2022-10-17T13:04:23.570Z,11.47
2022-10-17T13:06:55.128Z,10.70
2022-10-17T13:09:24.963Z,12.20
2022-10-17T13:11:52.090Z,11.20
2022-10-17T13:14:21.875Z,11.07
2022-10-17T13:17:06.591Z,11.10
2022-10-17T13:19:45.212Z,12.40
2022-10-17T13:22:18.694Z,9.57
2022-10-17T13:24:45.906Z,10.57
2022-10-17T13:27:47.996Z,10.37
2022-10-17T13:30:32.360Z,10.60
2022-10-17T13:33:00.750Z,10.70
2022-10-17T13:35:58.924Z,10.37
2022-10-17T13:38:28.658Z,10.20
2022-10-17T13:41:05.901Z,11.03
2022-10-17T13:43:42.906Z,10.63
2022-10-17T13:46:36.862Z,11.17
2022-10-17T13:49:12.799Z,10.37
2022-10-17T13:51:44.142Z,11.10
2022-10-17T13:54:34.743Z,10.20
2022-10-17T13:57:02.959Z,11.20
2022-10-17T13:59:39.716Z,10.07
2022-10-17T14:02:13.532Z,9.77
2022-10-17T14:05:11.642Z,9.90
2022-10-17T14:07:58.078Z,10.17
2022-10-17T14:10:37.453Z,10.70
2022-10-17T14:13:08.220Z,11.17
2022-10-17T14:15:36.766Z,10.97
2022-10-17T14:18:09.230Z,10.43
2022-10-17T14:23:31.995Z,10.40
2022-10-17T14:26:17.077Z,11.20
2022-10-17T14:28:47.077Z,10.47
2022-10-17T14:31:20.318Z,12.33
2022-10-17T14:33:50.846Z,11.67
2022-10-17T14:36:19.532Z,10.73
2022-10-17T14:38:50.353Z,11.20
2022-10-17T14:41:42.462Z,11.77
2022-10-17T14:44:18.828Z,11.00
2022-10-17T14:46:50.798Z,9.90
2022-10-17T14:49:25.214Z,10.43
2022-10-17T14:52:18.645Z,11.47
2022-10-17T14:54:48.582Z,11.70
2022-10-17T14:57:43.504Z,10.90
2022-10-17T15:00:15.468Z,11.50
2022-10-17T15:02:42.397Z,11.53
2022-10-17T15:05:13.078Z,11.50
2022-10-17T15:07:40.769Z,11.20
2022-10-17T15:10:37.703Z,11.17
2022-10-17T15:15:57.316Z,12.63
2022-10-17T15:18:27.574Z,10.83
2022-10-17T15:21:04.573Z,11.70
2022-10-17T15:23:46.023Z,12.00
2022-10-17T15:26:44.753Z,12.50
2022-10-17T15:29:26.434Z,12.70
2022-10-17T15:31:54.476Z,11.77
2022-10-17T15:34:37.959Z,10.93
2022-10-17T15:37:08.570Z,12.53
2022-10-17T15:39:35.522Z,13.07
2022-10-17T15:42:02.438Z,12.17
2022-10-17T15:44:29.347Z,13.10
2022-10-17T15:46:57.027Z,12.63
2022-10-17T15:49:23.814Z,12.90
2022-10-17T15:51:55.117Z,12.37
2022-10-17T15:54:22.202Z,13.47
2022-10-17T15:56:54.991Z,11.80
2022-10-17T15:59:27.339Z,11.80
2022-10-17T16:01:54.153Z,12.33
2022-10-17T16:04:21.122Z,12.53
2022-10-17T16:06:49.285Z,11.90
2022-10-17T16:09:16.121Z,13.10
2022-10-17T16:11:44.337Z,12.67
2022-10-17T16:14:14.359Z,12.50
2022-10-17T16:16:41.825Z,12.87
2022-10-17T16:19:09.265Z,12.10
2022-10-17T16:21:39.004Z,13.70
2022-10-17T16:24:06.347Z,12.70
2022-10-17T16:26:33.194Z,13.33
2022-10-17T16:29:02.950Z,12.77
2022-10-17T16:31:40.495Z,12.70
2022-10-17T16:34:08.942Z,12.13
2022-10-17T16:36:35.900Z,13.43
2022-10-17T16:39:02.926Z,13.87
2022-10-17T16:41:32.355Z,12.63
2022-10-17T16:44:01.087Z,13.67
2022-10-17T16:46:29.797Z,13.10
2022-10-17T16:48:57.221Z,13.20
2022-10-17T16:51:24.378Z,12.60
2022-10-17T16:53:54.438Z,13.93
2022-10-17T16:56:23.392Z,13.43
2022-10-17T16:58:51.889Z,14.10
2022-10-17T17:01:21.259Z,13.30
2022-10-17T17:03:48.176Z,13.93
2022-10-17T17:06:19.214Z,12.37
2022-10-17T17:08:46.491Z,12.63
2022-10-17T17:11:15.299Z,13.50
2022-10-17T17:13:42.540Z,13.03
2022-10-17T17:16:16.575Z,14.00
2022-10-17T17:18:45.992Z,13.57
2022-10-17T17:21:13.978Z,13.90
2022-10-17T17:23:42.335Z,12.93
2022-10-17T17:26:16.189Z,13.60
2022-10-17T17:28:43.922Z,14.50
2022-10-17T17:31:13.763Z,13.90
2022-10-17T17:33:41.866Z,15.47
2022-10-17T17:36:12.276Z,14.87
2022-10-17T17:38:40.149Z,13.90
2022-10-17T17:41:07.388Z,14.90
2022-10-17T17:43:35.625Z,14.67
2022-10-17T17:46:02.841Z,12.30
2022-10-17T17:48:29.964Z,12.80
2022-10-17T17:50:56.950Z,14.10
2022-10-17T17:53:24.171Z,14.80
2022-10-17T17:56:14.178Z,13.77
2022-10-17T17:58:45.831Z,13.67
2022-10-17T18:01:18.797Z,14.83
2022-10-17T18:03:46.455Z,13.37
2022-10-17T18:06:13.893Z,14.77
2022-10-17T18:08:43.461Z,14.70
2022-10-17T18:11:10.397Z,13.33
2022-10-17T18:13:37.498Z,13.77
2022-10-17T18:16:12.679Z,14.70
2022-10-17T18:18:41.628Z,14.20
2022-10-17T18:21:09.711Z,14.37
2022-10-17T18:23:40.620Z,13.10
2022-10-17T18:26:08.012Z,13.70
2022-10-17T18:28:37.013Z,14.03
2022-10-17T18:31:28.911Z,14.33
2022-10-17T18:33:57.812Z,13.57
2022-10-17T18:36:26.270Z,14.03
2022-10-17T18:38:53.969Z,14.73
2022-10-17T18:41:23.019Z,14.63
2022-10-17T18:43:51.442Z,14.57
2022-10-17T18:46:19.608Z,15.10
2022-10-17T18:48:47.837Z,13.20
2022-10-17T18:51:18.398Z,14.40
2022-10-17T18:53:47.789Z,14.43
2022-10-17T18:56:15.450Z,13.90
2022-10-17T18:58:42.389Z,14.63
2022-10-17T19:01:15.573Z,14.93
2022-10-17T19:03:43.626Z,15.27
2022-10-17T19:06:13.286Z,14.83
2022-10-17T19:08:41.792Z,13.03
2022-10-17T19:11:22.859Z,13.00
2022-10-17T19:13:50.162Z,13.57
2022-10-17T19:16:29.971Z,14.57
2022-10-17T19:18:59.522Z,14.07
2022-10-17T19:21:26.459Z,14.10
2022-10-17T19:23:58.014Z,14.63
2022-10-17T19:26:26.209Z,14.43
2022-10-17T19:28:53.876Z,15.30
2022-10-17T19:31:26.473Z,15.00
2022-10-17T19:33:54.288Z,12.90
2022-10-17T19:36:22.861Z,13.63
2022-10-17T19:38:52.496Z,15.27
2022-10-17T19:41:19.298Z,14.50
2022-10-17T19:43:46.652Z,14.77
2022-10-17T19:46:16.175Z,14.97
2022-10-17T19:48:43.568Z,14.63
2022-10-17T19:51:15.365Z,12.83
2022-10-17T19:53:43.016Z,14.27
2022-10-17T19:56:11.525Z,13.67
2022-10-17T19:58:45.185Z,14.70
2022-10-17T20:01:18.292Z,14.90
2022-10-17T20:03:45.776Z,15.83
2022-10-17T20:06:13.220Z,14.77
2022-10-17T20:08:41.225Z,16.27
2022-10-17T20:11:16.644Z,15.27
2022-10-17T20:13:44.868Z,16.47
2022-10-17T20:16:16.205Z,15.80
2022-10-17T20:18:43.814Z,16.30
2022-10-17T20:21:13.360Z,15.10
2022-10-17T20:23:40.822Z,16.93
2022-10-17T20:26:25.895Z,16.50
2022-10-17T20:29:01.595Z,15.23
2022-10-17T20:31:29.052Z,15.70
2022-10-17T20:33:57.727Z,15.87
2022-10-17T20:36:25.493Z,15.33
2022-10-17T20:38:56.794Z,14.97
2022-10-17T20:41:24.566Z,14.97
2022-10-17T20:43:53.386Z,15.10
2022-10-17T20:46:35.514Z,15.60
2022-10-17T20:49:05.055Z,14.97
2022-10-17T20:51:32.178Z,16.90
2022-10-17T20:53:59.056Z,16.50
2022-10-17T20:56:29.292Z,13.53
2022-10-17T20:58:59.575Z,15.93
2022-10-17T21:01:27.327Z,15.60
2022-10-17T21:03:54.476Z,14.20
2022-10-17T21:06:22.673Z,15.67
2022-10-17T21:08:50.018Z,14.47
2022-10-17T21:11:19.189Z,13.80
2022-10-17T21:13:47.528Z,18.10
2022-10-17T21:16:18.956Z,14.80
2022-10-17T21:18:46.302Z,15.67
2022-10-17T21:21:15.623Z,15.80
2022-10-17T21:23:44.514Z,15.23
2022-10-17T21:26:12.772Z,15.70
2022-10-17T21:28:41.537Z,14.33
2022-10-17T21:31:26.305Z,14.80
2022-10-17T21:33:59.173Z,15.90
2022-10-17T21:36:27.124Z,14.97
2022-10-17T21:38:55.830Z,15.97
2022-10-17T21:41:25.668Z,16.00
2022-10-17T21:43:54.760Z,15.23
2022-10-17T21:46:21.813Z,14.97
2022-10-17T21:48:49.548Z,14.97
2022-10-17T21:51:18.851Z,15.90
2022-10-17T21:53:45.821Z,15.17
2022-10-17T21:56:18.175Z,16.47
2022-10-17T21:58:45.544Z,14.97
2022-10-17T22:01:19.023Z,16.03
2022-10-17T22:03:48.527Z,15.60
2022-10-17T22:06:38.679Z,14.63
2022-10-17T22:09:07.917Z,13.13
2022-10-17T22:11:35.624Z,15.00
2022-10-17T22:14:05.461Z,16.00
2022-10-17T22:16:33.128Z,15.30
2022-10-17T22:19:05.009Z,14.23
2022-10-17T22:21:34.350Z,16.40
2022-10-17T22:24:04.611Z,15.10
2022-10-17T22:26:33.292Z,14.80
2022-10-17T22:29:00.463Z,15.20
2022-10-17T22:31:27.590Z,14.70
2022-10-17T22:33:54.408Z,14.53
2022-10-17T22:36:21.211Z,15.90
2022-10-17T22:38:48.547Z,14.60
2022-10-17T22:41:15.327Z,16.23
2022-10-17T22:43:42.119Z,14.90
2022-10-17T22:46:10.101Z,15.43
2022-10-17T22:48:37.132Z,16.03
2022-10-17T22:51:04.143Z,15.83
2022-10-17T22:53:31.036Z,15.40
2022-10-17T22:56:05.419Z,15.50
2022-10-17T22:58:34.068Z,15.03
2022-10-17T23:01:01.932Z,14.80
2022-10-17T23:03:30.035Z,15.00
2022-10-17T23:05:57.324Z,14.27
2022-10-17T23:08:25.152Z,15.50
2022-10-17T23:10:52.129Z,15.30
2022-10-17T23:13:19.914Z,14.73
2022-10-17T23:15:49.450Z,15.10
2022-10-17T23:18:16.354Z,16.10
2022-10-17T23:20:43.181Z,15.97
2022-10-17T23:23:10.085Z,13.93
2022-10-17T23:25:36.901Z,15.20
2022-10-17T23:28:03.704Z,15.20
2022-10-17T23:30:32.651Z,15.13
2022-10-17T23:32:59.591Z,14.87
2022-10-17T23:35:26.479Z,15.30
2022-10-17T23:37:53.278Z,14.33
2022-10-17T23:40:20.109Z,13.77
2022-10-17T23:42:46.930Z,15.27
2022-10-17T23:45:13.830Z,15.73
2022-10-17T23:47:40.627Z,14.77
2022-10-17T23:50:07.959Z,15.97
2022-10-17T23:52:34.782Z,14.43
2022-10-17T23:55:01.530Z,13.87
2022-10-17T23:57:28.617Z,13.80
2022-10-17T23:59:55.599Z,14.93
